North Hessary Tor, United Kingdom

8:02 AM BST on September 03, 2014 (GMT +0100)
Princetown, Dartmoor | Change Station
CLOSE
Current Station
Personal Weather Station
Location: Princetown,
Elevation: 1444 ft
Nearby Weather Stations

Elev 1444 ft 50.55 °N, 4.00 °W | Updated 41 seconds ago

Scattered Clouds
Scattered Clouds
57.2 °F
Feels Like 57.2 °F
N
2.0
Wind Variable Wind from ESE
Gusts 4.0 mph

Today
High -- | Low -- °F
--% Chance of Precip.
Yesterday
High -- | Low -- °F
Precip. -- in
6:32 AM 7:56 PM
First Quarter, 59% visible
Pressure 30.18 in
Visibility 2.2 miles
Clouds Few 1500 ft
Scattered Clouds 4500 ft
Dew Point 54 °F
Humidity 89%
Rainfall 0.00 in
Snow Depth Not available.
UV 0 out of 12
Pollen Not available.
Air Quality Not available.
Flu Activity Not available.
METAR EGTE 030650Z VRB02KT 3500 BR FEW015 SCT045 13/13 Q1022

More Conditions Fewer Conditions

Pressure 30.18 in
Visibility 2.2 miles
Clouds Few 1500 ft
Scattered Clouds 4500 ft
Dew Point 54 °F
Humidity 89%
Rainfall 0.00 in
Snow Depth Not available.
UV 0 out of 12
Pollen Not available.
Air Quality Not available.
Flu Activity Not available.
METAR EGTE 030650Z VRB02KT 3500 BR FEW015 SCT045 13/13 Q1022

More Conditions Fewer Conditions

10-Day Weather Forecast

Almanac

Astronomy

Sep. 03, 2014 Rise Set
Actual Time 6:32 AM BST 7:56 PM BST
Civil Twilight 5:58 AM BST 8:30 PM BST
Nautical Twilight 5:17 AM BST 9:11 PM BST
Astronomical Twilight 4:32 AM BST 9:56 PM BST
Moon 3:45 PM BST No Moon Set
Length of Visible Light 14h 31m
Length of Day
13h 23m
Tomorrow will be 3m 43s shorter.
First Quarter, 59% of the Moon is Illuminated
Today
First Quarter
Sep 8
Full
Sep 15
Last Quarter
Sep 24
New
Oct 1
First Quarter

Yesterday's Extremes

Country Highs Country Lows

Community

WunderPhotos

Upload Photos

1,749,888 photos uploaded!

Nearby

Snow Depth

Not available.

Earthquake Activity

City Distance Mag. Time & Date
No recent earthquake activity has been reported nearby.
Minimum magnitude displayed is 2.5.

Coastal Water Temperatures

Place Temperature
No Stations Reporting

Nearby Weather Stations